sensor_id;sensor_type;location;lat;lon;timestamp;P1;durP1;ratioP1;P2;durP2;ratioP2
21334;SDS011;69435;52.670;13.544;2023-06-22T00:01:41;16.20;;;14.47;;
21334;SDS011;69435;52.670;13.544;2023-06-22T00:04:07;16.77;;;14.20;;
21334;SDS011;69435;52.670;13.544;2023-06-22T00:06:32;16.80;;;15.20;;
21334;SDS011;69435;52.670;13.544;2023-06-22T00:08:58;15.77;;;14.27;;
21334;SDS011;69435;52.670;13.544;2023-06-22T00:11:23;15.80;;;14.40;;
21334;SDS011;69435;52.670;13.544;2023-06-22T00:13:49;14.40;;;13.13;;
21334;SDS011;69435;52.670;13.544;2023-06-22T00:16:34;15.00;;;13.50;;
21334;SDS011;69435;52.670;13.544;2023-06-22T00:19:02;15.53;;;14.13;;
21334;SDS011;69435;52.670;13.544;2023-06-22T00:21:34;14.30;;;13.10;;
21334;SDS011;69435;52.670;13.544;2023-06-22T00:24:00;15.17;;;13.80;;
21334;SDS011;69435;52.670;13.544;2023-06-22T00:26:25;14.93;;;13.67;;
21334;SDS011;69435;52.670;13.544;2023-06-22T00:28:53;15.37;;;12.70;;
21334;SDS011;69435;52.670;13.544;2023-06-22T00:31:19;13.83;;;12.57;;
21334;SDS011;69435;52.670;13.544;2023-06-22T00:33:47;14.57;;;13.17;;
21334;SDS011;69435;52.670;13.544;2023-06-22T00:36:18;15.23;;;13.90;;
21334;SDS011;69435;52.670;13.544;2023-06-22T00:38:44;14.83;;;13.43;;
21334;SDS011;69435;52.670;13.544;2023-06-22T00:41:10;15.63;;;14.07;;
21334;SDS011;69435;52.670;13.544;2023-06-22T00:43:35;15.00;;;13.70;;
21334;SDS011;69435;52.670;13.544;2023-06-22T00:46:01;15.10;;;13.60;;
21334;SDS011;69435;52.670;13.544;2023-06-22T00:48:30;14.17;;;13.07;;
21334;SDS011;69435;52.670;13.544;2023-06-22T00:51:07;14.77;;;13.37;;
21334;SDS011;69435;52.670;13.544;2023-06-22T00:53:33;14.17;;;12.93;;
21334;SDS011;69435;52.670;13.544;2023-06-22T00:56:00;15.27;;;13.97;;
21334;SDS011;69435;52.670;13.544;2023-06-22T00:58:28;13.40;;;12.30;;
21334;SDS011;69435;52.670;13.544;2023-06-22T01:01:03;13.10;;;12.00;;
21334;SDS011;69435;52.670;13.544;2023-06-22T01:03:41;15.43;;;13.43;;
21334;SDS011;69435;52.670;13.544;2023-06-22T01:06:08;15.60;;;13.97;;
21334;SDS011;69435;52.670;13.544;2023-06-22T01:08:51;13.87;;;12.70;;
21334;SDS011;69435;52.670;13.544;2023-06-22T01:11:37;14.67;;;13.30;;
21334;SDS011;69435;52.670;13.544;2023-06-22T01:14:21;13.93;;;12.27;;
21334;SDS011;69435;52.670;13.544;2023-06-22T01:16:57;14.77;;;13.23;;
21334;SDS011;69435;52.670;13.544;2023-06-22T01:22:20;14.87;;;12.93;;
21334;SDS011;69435;52.670;13.544;2023-06-22T01:25:07;13.70;;;12.53;;
21334;SDS011;69435;52.670;13.544;2023-06-22T01:30:28;14.47;;;13.07;;
21334;SDS011;69435;52.670;13.544;2023-06-22T01:32:59;14.13;;;12.87;;
21334;SDS011;69435;52.670;13.544;2023-06-22T01:35:32;14.60;;;13.30;;
21334;SDS011;69435;52.670;13.544;2023-06-22T01:37:59;15.63;;;14.20;;
21334;SDS011;69435;52.670;13.544;2023-06-22T01:40:28;14.67;;;13.23;;
21334;SDS011;69435;52.670;13.544;2023-06-22T01:42:55;14.70;;;13.40;;
21334;SDS011;69435;52.670;13.544;2023-06-22T01:45:33;15.03;;;13.60;;
21334;SDS011;69435;52.670;13.544;2023-06-22T01:47:59;14.77;;;13.27;;
21334;SDS011;69435;52.670;13.544;2023-06-22T01:50:25;14.60;;;13.30;;
21334;SDS011;69435;52.670;13.544;2023-06-22T01:52:51;14.37;;;12.97;;
21334;SDS011;69435;52.670;13.544;2023-06-22T01:55:17;19.93;;;13.97;;
21334;SDS011;69435;52.670;13.544;2023-06-22T01:57:58;15.13;;;13.70;;
21334;SDS011;69435;52.670;13.544;2023-06-22T02:00:24;15.87;;;14.27;;
21334;SDS011;69435;52.670;13.544;2023-06-22T02:03:11;14.50;;;13.20;;
21334;SDS011;69435;52.670;13.544;2023-06-22T02:06:04;14.93;;;13.37;;
21334;SDS011;69435;52.670;13.544;2023-06-22T02:08:41;16.53;;;13.50;;
21334;SDS011;69435;52.670;13.544;2023-06-22T02:11:14;15.73;;;14.33;;
21334;SDS011;69435;52.670;13.544;2023-06-22T02:13:45;15.93;;;14.03;;
21334;SDS011;69435;52.670;13.544;2023-06-22T02:16:11;15.20;;;13.47;;
21334;SDS011;69435;52.670;13.544;2023-06-22T02:18:47;15.50;;;14.00;;
21334;SDS011;69435;52.670;13.544;2023-06-22T02:21:17;14.50;;;13.20;;
21334;SDS011;69435;52.670;13.544;2023-06-22T02:23:44;15.00;;;13.60;;
21334;SDS011;69435;52.670;13.544;2023-06-22T02:26:10;15.97;;;14.50;;
21334;SDS011;69435;52.670;13.544;2023-06-22T02:28:54;15.30;;;13.83;;
21334;SDS011;69435;52.670;13.544;2023-06-22T02:31:20;15.40;;;14.10;;
21334;SDS011;69435;52.670;13.544;2023-06-22T02:33:45;15.93;;;14.10;;
21334;SDS011;69435;52.670;13.544;2023-06-22T02:36:11;17.77;;;16.17;;
21334;SDS011;69435;52.670;13.544;2023-06-22T02:38:38;18.53;;;16.73;;
21334;SDS011;69435;52.670;13.544;2023-06-22T02:41:14;17.60;;;15.70;;
21334;SDS011;69435;52.670;13.544;2023-06-22T02:43:44;16.47;;;14.77;;
21334;SDS011;69435;52.670;13.544;2023-06-22T02:46:11;16.53;;;14.77;;
21334;SDS011;69435;52.670;13.544;2023-06-22T02:48:39;16.53;;;14.60;;
21334;SDS011;69435;52.670;13.544;2023-06-22T02:51:08;15.83;;;14.23;;
21334;SDS011;69435;52.670;13.544;2023-06-22T02:53:34;16.13;;;14.17;;
21334;SDS011;69435;52.670;13.544;2023-06-22T02:56:01;16.97;;;15.10;;
21334;SDS011;69435;52.670;13.544;2023-06-22T02:58:31;17.53;;;15.73;;
21334;SDS011;69435;52.670;13.544;2023-06-22T03:01:04;17.57;;;15.67;;
21334;SDS011;69435;52.670;13.544;2023-06-22T03:03:33;17.07;;;15.17;;
21334;SDS011;69435;52.670;13.544;2023-06-22T03:06:07;16.90;;;15.20;;
21334;SDS011;69435;52.670;13.544;2023-06-22T03:08:39;16.20;;;14.57;;
21334;SDS011;69435;52.670;13.544;2023-06-22T03:11:15;16.97;;;14.23;;
21334;SDS011;69435;52.670;13.544;2023-06-22T03:13:41;16.97;;;15.33;;
21334;SDS011;69435;52.670;13.544;2023-06-22T03:16:10;16.80;;;15.20;;
21334;SDS011;69435;52.670;13.544;2023-06-22T03:18:35;18.67;;;16.20;;
21334;SDS011;69435;52.670;13.544;2023-06-22T03:21:01;20.60;;;18.40;;
21334;SDS011;69435;52.670;13.544;2023-06-22T03:23:30;21.80;;;17.80;;
21334;SDS011;69435;52.670;13.544;2023-06-22T03:25:58;19.03;;;17.13;;
21334;SDS011;69435;52.670;13.544;2023-06-22T03:28:27;21.33;;;17.43;;
21334;SDS011;69435;52.670;13.544;2023-06-22T03:30:53;20.10;;;18.10;;
21334;SDS011;69435;52.670;13.544;2023-06-22T03:33:19;18.90;;;17.10;;
21334;SDS011;69435;52.670;13.544;2023-06-22T03:35:54;22.07;;;17.23;;
21334;SDS011;69435;52.670;13.544;2023-06-22T03:38:31;19.43;;;17.50;;
21334;SDS011;69435;52.670;13.544;2023-06-22T03:40:57;20.80;;;18.60;;
21334;SDS011;69435;52.670;13.544;2023-06-22T03:43:23;19.73;;;17.70;;
21334;SDS011;69435;52.670;13.544;2023-06-22T03:45:49;20.10;;;17.90;;
21334;SDS011;69435;52.670;13.544;2023-06-22T03:48:26;21.00;;;18.90;;
21334;SDS011;69435;52.670;13.544;2023-06-22T03:50:52;20.13;;;18.10;;
21334;SDS011;69435;52.670;13.544;2023-06-22T03:53:17;19.73;;;17.73;;
21334;SDS011;69435;52.670;13.544;2023-06-22T03:55:50;21.30;;;18.53;;
21334;SDS011;69435;52.670;13.544;2023-06-22T03:58:17;22.03;;;19.40;;
21334;SDS011;69435;52.670;13.544;2023-06-22T04:00:45;21.13;;;19.03;;
21334;SDS011;69435;52.670;13.544;2023-06-22T04:03:31;23.13;;;19.73;;
21334;SDS011;69435;52.670;13.544;2023-06-22T04:05:56;22.33;;;19.70;;
21334;SDS011;69435;52.670;13.544;2023-06-22T04:08:22;21.90;;;19.07;;
21334;SDS011;69435;52.670;13.544;2023-06-22T04:10:48;22.53;;;19.23;;
21334;SDS011;69435;52.670;13.544;2023-06-22T04:13:32;25.10;;;21.63;;
21334;SDS011;69435;52.670;13.544;2023-06-22T04:16:04;24.90;;;21.30;;
21334;SDS011;69435;52.670;13.544;2023-06-22T04:18:29;24.00;;;21.13;;
21334;SDS011;69435;52.670;13.544;2023-06-22T04:20:55;22.90;;;19.33;;
21334;SDS011;69435;52.670;13.544;2023-06-22T04:23:21;23.87;;;18.63;;
21334;SDS011;69435;52.670;13.544;2023-06-22T04:25:46;20.53;;;17.47;;
21334;SDS011;69435;52.670;13.544;2023-06-22T04:28:18;20.80;;;18.50;;
21334;SDS011;69435;52.670;13.544;2023-06-22T04:30:44;22.10;;;18.43;;
21334;SDS011;69435;52.670;13.544;2023-06-22T04:33:15;22.83;;;17.97;;
21334;SDS011;69435;52.670;13.544;2023-06-22T04:35:42;19.17;;;17.13;;
21334;SDS011;69435;52.670;13.544;2023-06-22T04:38:13;20.37;;;18.17;;
21334;SDS011;69435;52.670;13.544;2023-06-22T04:40:57;20.57;;;17.03;;
21334;SDS011;69435;52.670;13.544;2023-06-22T04:43:23;17.43;;;15.53;;
21334;SDS011;69435;52.670;13.544;2023-06-22T04:45:49;15.53;;;13.90;;
21334;SDS011;69435;52.670;13.544;2023-06-22T04:48:20;15.80;;;14.27;;
21334;SDS011;69435;52.670;13.544;2023-06-22T04:50:48;14.23;;;12.93;;
21334;SDS011;69435;52.670;13.544;2023-06-22T04:53:14;16.20;;;13.87;;
21334;SDS011;69435;52.670;13.544;2023-06-22T04:55:52;14.03;;;12.60;;
21334;SDS011;69435;52.670;13.544;2023-06-22T04:58:18;14.60;;;12.77;;
21334;SDS011;69435;52.670;13.544;2023-06-22T05:00:50;13.40;;;12.30;;
21334;SDS011;69435;52.670;13.544;2023-06-22T05:03:19;12.40;;;11.20;;
21334;SDS011;69435;52.670;13.544;2023-06-22T05:05:52;12.43;;;10.53;;
21334;SDS011;69435;52.670;13.544;2023-06-22T05:08:33;12.87;;;11.33;;
21334;SDS011;69435;52.670;13.544;2023-06-22T05:11:02;11.23;;;10.37;;
21334;SDS011;69435;52.670;13.544;2023-06-22T05:13:28;12.73;;;10.30;;
21334;SDS011;69435;52.670;13.544;2023-06-22T05:15:59;11.10;;;10.00;;
21334;SDS011;69435;52.670;13.544;2023-06-22T05:18:34;9.53;;;8.53;;
21334;SDS011;69435;52.670;13.544;2023-06-22T05:21:00;8.17;;;7.57;;
21334;SDS011;69435;52.670;13.544;2023-06-22T05:23:38;9.20;;;7.13;;
21334;SDS011;69435;52.670;13.544;2023-06-22T05:26:03;8.27;;;6.53;;
21334;SDS011;69435;52.670;13.544;2023-06-22T05:28:29;7.47;;;6.87;;
21334;SDS011;69435;52.670;13.544;2023-06-22T05:30:55;7.33;;;6.83;;
21334;SDS011;69435;52.670;13.544;2023-06-22T05:33:42;7.77;;;6.07;;
21334;SDS011;69435;52.670;13.544;2023-06-22T05:36:09;7.10;;;6.50;;
21334;SDS011;69435;52.670;13.544;2023-06-22T05:38:38;6.63;;;5.47;;
21334;SDS011;69435;52.670;13.544;2023-06-22T05:41:05;8.03;;;5.00;;
21334;SDS011;69435;52.670;13.544;2023-06-22T05:43:31;6.13;;;5.63;;
21334;SDS011;69435;52.670;13.544;2023-06-22T05:46:01;5.10;;;4.70;;
21334;SDS011;69435;52.670;13.544;2023-06-22T05:48:39;4.57;;;4.03;;
21334;SDS011;69435;52.670;13.544;2023-06-22T05:51:07;4.47;;;3.47;;
21334;SDS011;69435;52.670;13.544;2023-06-22T05:53:39;4.23;;;3.83;;
21334;SDS011;69435;52.670;13.544;2023-06-22T05:56:07;3.50;;;3.30;;
21334;SDS011;69435;52.670;13.544;2023-06-22T05:58:33;4.30;;;3.90;;
21334;SDS011;69435;52.670;13.544;2023-06-22T06:01:12;4.33;;;3.57;;
21334;SDS011;69435;52.670;13.544;2023-06-22T06:03:40;6.07;;;3.47;;
21334;SDS011;69435;52.670;13.544;2023-06-22T06:06:09;3.80;;;3.50;;
21334;SDS011;69435;52.670;13.544;2023-06-22T06:08:41;3.50;;;3.30;;
21334;SDS011;69435;52.670;13.544;2023-06-22T06:11:10;8.27;;;3.70;;
21334;SDS011;69435;52.670;13.544;2023-06-22T06:13:37;3.85;;;3.55;;
21334;SDS011;69435;52.670;13.544;2023-06-22T06:16:02;3.83;;;3.53;;
21334;SDS011;69435;52.670;13.544;2023-06-22T06:18:38;4.00;;;3.70;;
21334;SDS011;69435;52.670;13.544;2023-06-22T06:21:09;5.90;;;4.20;;
21334;SDS011;69435;52.670;13.544;2023-06-22T06:23:35;3.53;;;3.30;;
21334;SDS011;69435;52.670;13.544;2023-06-22T06:26:01;4.40;;;4.00;;
21334;SDS011;69435;52.670;13.544;2023-06-22T06:28:27;5.90;;;3.70;;
21334;SDS011;69435;52.670;13.544;2023-06-22T06:31:11;5.17;;;3.20;;
21334;SDS011;69435;52.670;13.544;2023-06-22T06:33:37;4.28;;;3.63;;
21334;SDS011;69435;52.670;13.544;2023-06-22T06:36:08;3.70;;;3.40;;
21334;SDS011;69435;52.670;13.544;2023-06-22T06:38:34;3.70;;;3.15;;
21334;SDS011;69435;52.670;13.544;2023-06-22T06:41:00;3.58;;;3.28;;
21334;SDS011;69435;52.670;13.544;2023-06-22T06:43:32;3.50;;;3.20;;
21334;SDS011;69435;52.670;13.544;2023-06-22T06:46:00;4.82;;;3.15;;
21334;SDS011;69435;52.670;13.544;2023-06-22T06:48:28;4.68;;;3.78;;
21334;SDS011;69435;52.670;13.544;2023-06-22T06:50:54;3.25;;;3.05;;
21334;SDS011;69435;52.670;13.544;2023-06-22T06:53:20;4.05;;;3.72;;
21334;SDS011;69435;52.670;13.544;2023-06-22T06:56:00;7.28;;;3.42;;
21334;SDS011;69435;52.670;13.544;2023-06-22T06:58:29;3.08;;;2.72;;
21334;SDS011;69435;52.670;13.544;2023-06-22T07:01:06;4.32;;;3.10;;
21334;SDS011;69435;52.670;13.544;2023-06-22T07:03:32;3.50;;;2.97;;
21334;SDS011;69435;52.670;13.544;2023-06-22T07:06:04;3.40;;;3.10;;
21334;SDS011;69435;52.670;13.544;2023-06-22T07:08:30;3.40;;;3.10;;
21334;SDS011;69435;52.670;13.544;2023-06-22T07:11:01;3.53;;;3.10;;
21334;SDS011;69435;52.670;13.544;2023-06-22T07:13:36;3.17;;;2.90;;
21334;SDS011;69435;52.670;13.544;2023-06-22T07:16:02;4.43;;;2.75;;
21334;SDS011;69435;52.670;13.544;2023-06-22T07:18:34;3.60;;;3.03;;
21334;SDS011;69435;52.670;13.544;2023-06-22T07:20:59;2.95;;;2.50;;
21334;SDS011;69435;52.670;13.544;2023-06-22T07:23:31;3.47;;;2.90;;
21334;SDS011;69435;52.670;13.544;2023-06-22T07:26:00;3.17;;;2.88;;
21334;SDS011;69435;52.670;13.544;2023-06-22T07:28:34;2.75;;;2.60;;
21334;SDS011;69435;52.670;13.544;2023-06-22T07:31:03;3.83;;;2.92;;
21334;SDS011;69435;52.670;13.544;2023-06-22T07:33:32;3.13;;;2.80;;
21334;SDS011;69435;52.670;13.544;2023-06-22T07:35:58;2.55;;;2.45;;
21334;SDS011;69435;52.670;13.544;2023-06-22T07:38:24;2.80;;;2.70;;
21334;SDS011;69435;52.670;13.544;2023-06-22T07:40:49;4.82;;;3.00;;
21334;SDS011;69435;52.670;13.544;2023-06-22T07:43:16;2.85;;;2.58;;
21334;SDS011;69435;52.670;13.544;2023-06-22T07:45:47;2.72;;;2.53;;
21334;SDS011;69435;52.670;13.544;2023-06-22T07:48:23;2.85;;;2.65;;
21334;SDS011;69435;52.670;13.544;2023-06-22T07:50:49;2.75;;;2.42;;
21334;SDS011;69435;52.670;13.544;2023-06-22T07:53:18;2.90;;;2.58;;
21334;SDS011;69435;52.670;13.544;2023-06-22T07:55:48;2.80;;;2.60;;
21334;SDS011;69435;52.670;13.544;2023-06-22T07:58:15;2.88;;;2.60;;
21334;SDS011;69435;52.670;13.544;2023-06-22T08:00:43;2.75;;;2.55;;
21334;SDS011;69435;52.670;13.544;2023-06-22T08:03:12;2.83;;;2.70;;
21334;SDS011;69435;52.670;13.544;2023-06-22T08:05:44;2.67;;;2.47;;
21334;SDS011;69435;52.670;13.544;2023-06-22T08:08:10;2.50;;;2.40;;
21334;SDS011;69435;52.670;13.544;2023-06-22T08:10:55;2.58;;;2.30;;
21334;SDS011;69435;52.670;13.544;2023-06-22T08:13:20;8.30;;;2.78;;
21334;SDS011;69435;52.670;13.544;2023-06-22T08:15:58;2.67;;;2.50;;
21334;SDS011;69435;52.670;13.544;2023-06-22T08:18:24;2.65;;;2.47;;
21334;SDS011;69435;52.670;13.544;2023-06-22T08:20:50;2.30;;;2.17;;
21334;SDS011;69435;52.670;13.544;2023-06-22T08:23:15;2.58;;;2.47;;
21334;SDS011;69435;52.670;13.544;2023-06-22T08:25:42;3.78;;;2.60;;
21334;SDS011;69435;52.670;13.544;2023-06-22T08:28:11;2.95;;;2.67;;
21334;SDS011;69435;52.670;13.544;2023-06-22T08:30:38;4.28;;;2.65;;
21334;SDS011;69435;52.670;13.544;2023-06-22T08:33:13;2.83;;;2.67;;
21334;SDS011;69435;52.670;13.544;2023-06-22T08:35:57;3.22;;;2.92;;
21334;SDS011;69435;52.670;13.544;2023-06-22T08:38:24;3.17;;;2.47;;
21334;SDS011;69435;52.670;13.544;2023-06-22T08:41:07;2.60;;;2.40;;
21334;SDS011;69435;52.670;13.544;2023-06-22T08:43:43;2.60;;;2.50;;
21334;SDS011;69435;52.670;13.544;2023-06-22T08:46:12;2.60;;;2.50;;
21334;SDS011;69435;52.670;13.544;2023-06-22T08:48:38;2.47;;;2.28;;
21334;SDS011;69435;52.670;13.544;2023-06-22T08:51:04;2.92;;;2.60;;
21334;SDS011;69435;52.670;13.544;2023-06-22T08:53:32;3.17;;;2.50;;
21334;SDS011;69435;52.670;13.544;2023-06-22T08:56:02;2.65;;;2.45;;
21334;SDS011;69435;52.670;13.544;2023-06-22T08:58:28;2.80;;;2.60;;
21334;SDS011;69435;52.670;13.544;2023-06-22T09:00:54;3.03;;;2.70;;
21334;SDS011;69435;52.670;13.544;2023-06-22T09:03:26;2.63;;;2.38;;
21334;SDS011;69435;52.670;13.544;2023-06-22T09:06:04;2.88;;;2.67;;
21334;SDS011;69435;52.670;13.544;2023-06-22T09:08:30;2.53;;;2.33;;
21334;SDS011;69435;52.670;13.544;2023-06-22T09:10:55;2.67;;;2.58;;
21334;SDS011;69435;52.670;13.544;2023-06-22T09:13:24;4.15;;;2.75;;
21334;SDS011;69435;52.670;13.544;2023-06-22T09:15:53;2.72;;;2.60;;
21334;SDS011;69435;52.670;13.544;2023-06-22T09:18:18;2.97;;;2.88;;
21334;SDS011;69435;52.670;13.544;2023-06-22T09:20:44;2.60;;;2.50;;
21334;SDS011;69435;52.670;13.544;2023-06-22T09:23:20;6.82;;;2.60;;
21334;SDS011;69435;52.670;13.544;2023-06-22T09:25:45;2.90;;;2.70;;
21334;SDS011;69435;52.670;13.544;2023-06-22T09:28:13;3.00;;;2.80;;
21334;SDS011;69435;52.670;13.544;2023-06-22T09:30:39;3.42;;;2.40;;
21334;SDS011;69435;52.670;13.544;2023-06-22T09:33:05;3.25;;;2.70;;
21334;SDS011;69435;52.670;13.544;2023-06-22T09:35:31;2.92;;;2.70;;
21334;SDS011;69435;52.670;13.544;2023-06-22T09:37:56;3.13;;;2.85;;
21334;SDS011;69435;52.670;13.544;2023-06-22T09:40:25;3.05;;;2.70;;
21334;SDS011;69435;52.670;13.544;2023-06-22T09:42:51;3.83;;;2.80;;
21334;SDS011;69435;52.670;13.544;2023-06-22T09:45:16;3.00;;;2.80;;
21334;SDS011;69435;52.670;13.544;2023-06-22T09:47:42;3.17;;;2.97;;
21334;SDS011;69435;52.670;13.544;2023-06-22T09:50:11;3.10;;;2.90;;
21334;SDS011;69435;52.670;13.544;2023-06-22T09:52:52;3.80;;;3.15;;
21334;SDS011;69435;52.670;13.544;2023-06-22T09:55:22;2.85;;;2.65;;
21334;SDS011;69435;52.670;13.544;2023-06-22T09:57:51;3.95;;;2.78;;
21334;SDS011;69435;52.670;13.544;2023-06-22T10:00:19;3.00;;;2.80;;
21334;SDS011;69435;52.670;13.544;2023-06-22T10:02:46;3.25;;;2.90;;
21334;SDS011;69435;52.670;13.544;2023-06-22T10:05:13;3.08;;;2.80;;
21334;SDS011;69435;52.670;13.544;2023-06-22T10:07:39;3.67;;;3.30;;
21334;SDS011;69435;52.670;13.544;2023-06-22T10:10:20;3.72;;;2.90;;
21334;SDS011;69435;52.670;13.544;2023-06-22T10:12:46;2.85;;;2.70;;
21334;SDS011;69435;52.670;13.544;2023-06-22T10:15:20;3.30;;;2.80;;
21334;SDS011;69435;52.670;13.544;2023-06-22T10:17:46;3.00;;;2.55;;
21334;SDS011;69435;52.670;13.544;2023-06-22T10:20:18;3.22;;;3.13;;
21334;SDS011;69435;52.670;13.544;2023-06-22T10:22:44;3.08;;;2.88;;
21334;SDS011;69435;52.670;13.544;2023-06-22T10:25:11;3.25;;;2.95;;
21334;SDS011;69435;52.670;13.544;2023-06-22T10:27:38;3.25;;;2.95;;
21334;SDS011;69435;52.670;13.544;2023-06-22T10:30:08;3.30;;;3.10;;
21334;SDS011;69435;52.670;13.544;2023-06-22T10:32:38;3.17;;;2.80;;
21334;SDS011;69435;52.670;13.544;2023-06-22T10:35:04;3.53;;;3.30;;
21334;SDS011;69435;52.670;13.544;2023-06-22T10:37:31;3.40;;;3.10;;
21334;SDS011;69435;52.670;13.544;2023-06-22T10:39:59;3.00;;;2.80;;
21334;SDS011;69435;52.670;13.544;2023-06-22T10:42:28;3.22;;;2.92;;
21334;SDS011;69435;52.670;13.544;2023-06-22T10:45:02;3.13;;;2.92;;
21334;SDS011;69435;52.670;13.544;2023-06-22T10:47:29;3.50;;;2.85;;
21334;SDS011;69435;52.670;13.544;2023-06-22T10:49:54;3.90;;;2.92;;
21334;SDS011;69435;52.670;13.544;2023-06-22T10:52:23;3.40;;;3.20;;
21334;SDS011;69435;52.670;13.544;2023-06-22T10:54:49;3.33;;;3.03;;
21334;SDS011;69435;52.670;13.544;2023-06-22T10:57:33;4.18;;;3.20;;
21334;SDS011;69435;52.670;13.544;2023-06-22T10:59:58;3.25;;;3.03;;
21334;SDS011;69435;52.670;13.544;2023-06-22T11:02:24;3.58;;;3.22;;
21334;SDS011;69435;52.670;13.544;2023-06-22T11:04:50;3.28;;;3.08;;
21334;SDS011;69435;52.670;13.544;2023-06-22T11:07:34;4.03;;;3.55;;
21334;SDS011;69435;52.670;13.544;2023-06-22T11:10:00;5.13;;;3.30;;
21334;SDS011;69435;52.670;13.544;2023-06-22T11:12:28;3.55;;;3.30;;
21334;SDS011;69435;52.670;13.544;2023-06-22T11:14:54;4.53;;;3.17;;
21334;SDS011;69435;52.670;13.544;2023-06-22T11:17:22;3.60;;;3.40;;
21334;SDS011;69435;52.670;13.544;2023-06-22T11:19:48;5.22;;;3.28;;
21334;SDS011;69435;52.670;13.544;2023-06-22T11:22:13;3.17;;;3.00;;
21334;SDS011;69435;52.670;13.544;2023-06-22T11:24:42;3.25;;;3.00;;
21334;SDS011;69435;52.670;13.544;2023-06-22T11:27:07;3.20;;;3.00;;
21334;SDS011;69435;52.670;13.544;2023-06-22T11:29:33;3.33;;;3.13;;
21334;SDS011;69435;52.670;13.544;2023-06-22T11:31:59;3.53;;;3.22;;
21334;SDS011;69435;52.670;13.544;2023-06-22T11:34:24;3.53;;;3.22;;
21334;SDS011;69435;52.670;13.544;2023-06-22T11:36:51;3.40;;;3.20;;
21334;SDS011;69435;52.670;13.544;2023-06-22T11:39:16;4.20;;;3.90;;
21334;SDS011;69435;52.670;13.544;2023-06-22T11:41:48;3.38;;;3.17;;
21334;SDS011;69435;52.670;13.544;2023-06-22T11:44:32;3.45;;;3.25;;
21334;SDS011;69435;52.670;13.544;2023-06-22T11:46:58;3.50;;;3.30;;
21334;SDS011;69435;52.670;13.544;2023-06-22T11:49:26;4.07;;;3.78;;
21334;SDS011;69435;52.670;13.544;2023-06-22T11:51:52;3.92;;;3.63;;
21334;SDS011;69435;52.670;13.544;2023-06-22T11:54:33;3.30;;;3.20;;
21334;SDS011;69435;52.670;13.544;2023-06-22T11:56:59;3.70;;;3.40;;
21334;SDS011;69435;52.670;13.544;2023-06-22T11:59:28;3.28;;;3.08;;
21334;SDS011;69435;52.670;13.544;2023-06-22T12:01:57;4.55;;;3.80;;
21334;SDS011;69435;52.670;13.544;2023-06-22T12:04:23;3.85;;;3.55;;
21334;SDS011;69435;52.670;13.544;2023-06-22T12:06:49;4.03;;;3.72;;
21334;SDS011;69435;52.670;13.544;2023-06-22T12:09:34;3.45;;;3.25;;
21334;SDS011;69435;52.670;13.544;2023-06-22T12:11:59;4.13;;;3.92;;
21334;SDS011;69435;52.670;13.544;2023-06-22T12:14:28;4.07;;;3.78;;
21334;SDS011;69435;52.670;13.544;2023-06-22T12:17:12;3.78;;;3.55;;
21334;SDS011;69435;52.670;13.544;2023-06-22T12:19:38;3.67;;;3.47;;
21334;SDS011;69435;52.670;13.544;2023-06-22T12:22:06;3.60;;;3.40;;
21334;SDS011;69435;52.670;13.544;2023-06-22T12:24:31;4.22;;;3.80;;
21334;SDS011;69435;52.670;13.544;2023-06-22T12:27:03;3.72;;;3.53;;
21334;SDS011;69435;52.670;13.544;2023-06-22T12:29:29;4.07;;;3.80;;
21334;SDS011;69435;52.670;13.544;2023-06-22T12:32:02;3.95;;;3.63;;
21334;SDS011;69435;52.670;13.544;2023-06-22T12:34:29;9.82;;;4.00;;
21334;SDS011;69435;52.670;13.544;2023-06-22T12:37:00;4.10;;;3.70;;
21334;SDS011;69435;52.670;13.544;2023-06-22T12:39:29;4.10;;;3.90;;
21334;SDS011;69435;52.670;13.544;2023-06-22T12:42:04;4.00;;;3.80;;
21334;SDS011;69435;52.670;13.544;2023-06-22T12:44:32;5.95;;;4.10;;
21334;SDS011;69435;52.670;13.544;2023-06-22T12:46:57;4.13;;;3.83;;
21334;SDS011;69435;52.670;13.544;2023-06-22T12:49:23;4.20;;;3.90;;
21334;SDS011;69435;52.670;13.544;2023-06-22T12:51:52;4.22;;;4.03;;
21334;SDS011;69435;52.670;13.544;2023-06-22T12:54:23;4.20;;;3.90;;
21334;SDS011;69435;52.670;13.544;2023-06-22T12:56:52;4.05;;;3.75;;
21334;SDS011;69435;52.670;13.544;2023-06-22T12:59:20;4.35;;;3.97;;
21334;SDS011;69435;52.670;13.544;2023-06-22T13:01:51;4.00;;;3.70;;
21334;SDS011;69435;52.670;13.544;2023-06-22T13:04:29;4.18;;;3.88;;
21334;SDS011;69435;52.670;13.544;2023-06-22T13:07:04;4.13;;;3.83;;
21334;SDS011;69435;52.670;13.544;2023-06-22T13:09:32;3.88;;;3.65;;
21334;SDS011;69435;52.670;13.544;2023-06-22T13:11:59;4.20;;;3.90;;
21334;SDS011;69435;52.670;13.544;2023-06-22T13:14:34;4.18;;;3.88;;
21334;SDS011;69435;52.670;13.544;2023-06-22T13:17:00;4.32;;;4.03;;
21334;SDS011;69435;52.670;13.544;2023-06-22T13:19:31;5.20;;;4.55;;
21334;SDS011;69435;52.670;13.544;2023-06-22T13:21:57;4.53;;;4.13;;
21334;SDS011;69435;52.670;13.544;2023-06-22T13:24:42;5.05;;;4.10;;
21334;SDS011;69435;52.670;13.544;2023-06-22T13:27:08;4.55;;;4.25;;
21334;SDS011;69435;52.670;13.544;2023-06-22T13:29:33;8.77;;;4.32;;
21334;SDS011;69435;52.670;13.544;2023-06-22T13:31:59;4.40;;;4.10;;
21334;SDS011;69435;52.670;13.544;2023-06-22T13:34:28;3.95;;;3.72;;
21334;SDS011;69435;52.670;13.544;2023-06-22T13:37:02;4.40;;;4.15;;
21334;SDS011;69435;52.670;13.544;2023-06-22T13:39:34;4.82;;;4.40;;
21334;SDS011;69435;52.670;13.544;2023-06-22T13:42:00;4.43;;;4.13;;
21334;SDS011;69435;52.670;13.544;2023-06-22T13:44:32;4.75;;;4.35;;
21334;SDS011;69435;52.670;13.544;2023-06-22T13:46:58;4.90;;;4.60;;
21334;SDS011;69435;52.670;13.544;2023-06-22T13:49:23;4.55;;;4.25;;
21334;SDS011;69435;52.670;13.544;2023-06-22T13:51:49;4.55;;;4.25;;
21334;SDS011;69435;52.670;13.544;2023-06-22T13:54:18;5.00;;;4.60;;
21334;SDS011;69435;52.670;13.544;2023-06-22T13:56:44;4.70;;;4.40;;
21334;SDS011;69435;52.670;13.544;2023-06-22T13:59:12;4.60;;;4.30;;
21334;SDS011;69435;52.670;13.544;2023-06-22T14:01:44;5.00;;;4.63;;
21334;SDS011;69435;52.670;13.544;2023-06-22T14:04:19;5.07;;;4.78;;
21334;SDS011;69435;52.670;13.544;2023-06-22T14:06:53;5.07;;;4.65;;
21334;SDS011;69435;52.670;13.544;2023-06-22T14:09:20;4.63;;;4.32;;
21334;SDS011;69435;52.670;13.544;2023-06-22T14:11:46;5.10;;;4.80;;
21334;SDS011;69435;52.670;13.544;2023-06-22T14:14:12;6.10;;;4.93;;
21334;SDS011;69435;52.670;13.544;2023-06-22T14:16:37;5.32;;;4.57;;
21334;SDS011;69435;52.670;13.544;2023-06-22T14:19:09;5.38;;;5.00;;
21334;SDS011;69435;52.670;13.544;2023-06-22T14:21:44;5.97;;;5.10;;
21334;SDS011;69435;52.670;13.544;2023-06-22T14:24:09;6.28;;;4.50;;
21334;SDS011;69435;52.670;13.544;2023-06-22T14:26:35;5.43;;;5.00;;
21334;SDS011;69435;52.670;13.544;2023-06-22T14:29:19;5.03;;;4.72;;
21334;SDS011;69435;52.670;13.544;2023-06-22T14:31:45;5.35;;;4.93;;
21334;SDS011;69435;52.670;13.544;2023-06-22T14:34:12;5.50;;;5.05;;
21334;SDS011;69435;52.670;13.544;2023-06-22T14:36:38;5.43;;;4.97;;
21334;SDS011;69435;52.670;13.544;2023-06-22T14:39:03;4.90;;;4.50;;
21334;SDS011;69435;52.670;13.544;2023-06-22T14:41:32;5.53;;;5.13;;
21334;SDS011;69435;52.670;13.544;2023-06-22T14:43:58;5.13;;;4.70;;
21334;SDS011;69435;52.670;13.544;2023-06-22T14:46:24;4.95;;;4.65;;